Time;durP1;ratioP1;P1;durP2;ratioP2;P2;SDS_P1;SDS_P2;PMS_P1;PMS_P2;Temp;Humidity;BMP_temperature;BMP_pressure;BME280_temperature;BME280_humidity;BME280_pressure;Samples;Min_cycle;Max_cycle;Signal;HPM_P1;HPM_P2
2022/11/05 00:25:28;;;;;;;2.53;2.00;;;;;;;;;;6238644;22;20033;-93
2022/11/05 00:27:54;;;;;;;2.65;1.65;;;;;;;;;;6235359;22;20858;-91
2022/11/05 00:30:44;;;;;;;2.10;1.60;;;;;;;;;;6255657;22;20019;-92
2022/11/05 00:33:10;;;;;;;2.00;1.40;;;;;;;;;;6265919;22;20004;-94
2022/11/05 00:35:36;;;;;;;3.03;1.92;;;;;;;;;;6267217;22;20020;-93
2022/11/05 00:40:38;;;;;;;3.05;1.83;;;;;;;;;;6290641;22;20023;-92
2022/11/05 00:56:59;;;;;;;2.85;1.65;;;;;;;;;;6326327;22;19999;-94
2022/11/05 01:04:51;;;;;;;2.08;1.40;;;;;;;;;;6292452;22;20030;-94
2022/11/05 01:10:21;;;;;;;3.15;1.45;;;;;;;;;;6266574;22;20095;-95
2022/11/05 01:24:48;;;;;;;3.13;2.00;;;;;;;;;;6263840;22;20015;-94
2022/11/05 01:27:34;;;;;;;2.47;1.80;;;;;;;;;;6265732;22;19988;-93
2022/11/05 01:35:29;;;;;;;2.47;1.63;;;;;;;;;;6291201;22;20062;-93
2022/11/05 01:38:34;;;;;;;2.70;1.85;;;;;;;;;;6254049;22;20271;-93
2022/11/05 01:55:42;;;;;;;2.92;1.45;;;;;;;;;;6311653;22;20064;-93
2022/11/05 02:08:43;;;;;;;2.30;1.40;;;;;;;;;;6312561;22;20024;-93
2022/11/05 02:19:32;;;;;;;2.15;1.40;;;;;;;;;;6275724;22;20086;-93
2022/11/05 02:25:07;;;;;;;2.08;1.17;;;;;;;;;;6280363;22;20039;-92
2022/11/05 02:27:51;;;;;;;2.83;1.27;;;;;;;;;;6264275;22;20062;-93
2022/11/05 02:30:36;;;;;;;1.88;1.10;;;;;;;;;;6261675;22;20031;-94
2022/11/05 02:33:21;;;;;;;2.72;1.27;;;;;;;;;;6297188;22;20047;-94
2022/11/05 02:39:00;;;;;;;1.58;0.93;;;;;;;;;;6309255;22;20072;-93
2022/11/05 02:41:51;;;;;;;3.40;1.00;;;;;;;;;;6285122;22;19999;-94
2022/11/05 02:44:23;;;;;;;3.35;1.20;;;;;;;;;;6266794;22;19999;-93
2022/11/05 02:47:14;;;;;;;2.05;1.08;;;;;;;;;;6240995;22;20019;-94
2022/11/05 02:56:01;;;;;;;2.03;1.17;;;;;;;;;;6317444;22;20099;-92
2022/11/05 03:01:30;;;;;;;1.48;0.90;;;;;;;;;;6313245;22;20017;-92
2022/11/05 03:22:20;;;;;;;2.35;1.40;;;;;;;;;;6299236;22;20077;-93
2022/11/05 03:41:13;;;;;;;2.97;1.30;;;;;;;;;;6281417;22;20033;-93
2022/11/05 03:53:39;;;;;;;2.50;1.50;;;;;;;;;;6313429;22;20057;31
2022/11/05 03:56:08;;;;;;;2.78;1.60;;;;;;;;;;6200101;22;20016;-93
2022/11/05 04:01:16;;;;;;;2.45;1.50;;;;;;;;;;6235607;22;20441;-94
2022/11/05 04:03:47;;;;;;;1.80;1.33;;;;;;;;;;6274927;22;20019;-92
2022/11/05 04:17:20;;;;;;;4.32;1.65;;;;;;;;;;6285805;22;20027;-95
2022/11/05 04:24:56;;;;;;;4.03;1.98;;;;;;;;;;6300426;22;20032;-93
2022/11/05 04:33:14;;;;;;;2.78;2.05;;;;;;;;;;6272726;22;20026;-95
2022/11/05 04:38:21;;;;;;;2.22;1.67;;;;;;;;;;6281892;22;20106;-93
2022/11/05 04:43:34;;;;;;;3.35;2.00;;;;;;;;;;6289629;22;20026;-94
2022/11/05 04:46:24;;;;;;;4.30;1.92;;;;;;;;;;6274433;22;20015;-94
2022/11/05 04:51:26;;;;;;;2.97;1.95;;;;;;;;;;6268911;22;20039;-93
2022/11/05 04:53:55;;;;;;;2.83;1.90;;;;;;;;;;6228224;22;20031;-95
2022/11/05 04:56:25;;;;;;;2.80;1.98;;;;;;;;;;6256445;22;20019;-96
2022/11/05 04:58:59;;;;;;;3.97;2.10;;;;;;;;;;6239474;22;20011;-94
2022/11/05 05:01:25;;;;;;;3.75;1.80;;;;;;;;;;6260664;22;20026;-95
2022/11/05 05:03:51;;;;;;;3.92;1.75;;;;;;;;;;6226047;22;21148;-94
2022/11/05 05:06:24;;;;;;;3.08;2.15;;;;;;;;;;6246422;22;20038;-94
2022/11/05 05:28:05;;;;;;;4.32;2.50;;;;;;;;;;6321203;22;20029;-92
2022/11/05 05:47:00;;;;;;;4.07;2.77;;;;;;;;;;6326008;22;20014;-95
2022/11/05 05:49:26;;;;;;;4.43;3.28;;;;;;;;;;6257499;22;20022;-94
2022/11/05 05:58:02;;;;;;;4.72;2.80;;;;;;;;;;6291845;22;20035;-95
2022/11/05 06:00:53;;;;;;;4.15;3.05;;;;;;;;;;6293299;22;19987;-95
2022/11/05 06:03:27;;;;;;;4.57;2.92;;;;;;;;;;6295585;22;20004;-94
2022/11/05 06:06:19;;;;;;;3.42;2.55;;;;;;;;;;6226775;23;20009;-94
2022/11/05 06:11:48;;;;;;;3.53;2.38;;;;;;;;;;6221486;23;20068;-92
2022/11/05 06:14:20;;;;;;;5.82;2.65;;;;;;;;;;6190883;23;20091;-94
2022/11/05 06:16:49;;;;;;;4.35;2.85;;;;;;;;;;6244624;22;20356;-94
2022/11/05 06:22:09;;;;;;;6.85;3.50;;;;;;;;;;6312041;22;20080;-94
2022/11/05 06:24:38;;;;;;;7.22;3.40;;;;;;;;;;6286136;22;19987;-96
2022/11/05 06:27:22;;;;;;;4.15;3.00;;;;;;;;;;6285534;22;20007;-94
2022/11/05 06:29:48;;;;;;;5.47;3.17;;;;;;;;;;6288225;22;20011;-94
2022/11/05 06:32:18;;;;;;;5.57;3.22;;;;;;;;;;6291061;22;20025;-90
2022/11/05 06:34:44;;;;;;;5.22;3.50;;;;;;;;;;6306504;22;19999;-92
2022/11/05 06:37:16;;;;;;;5.40;3.67;;;;;;;;;;6297603;22;20031;-94
2022/11/05 06:40:13;;;;;;;5.10;3.50;;;;;;;;;;6291151;22;20003;-94
2022/11/05 06:42:39;;;;;;;6.53;3.58;;;;;;;;;;6239452;22;20007;-93
2022/11/05 06:45:30;;;;;;;8.48;4.07;;;;;;;;;;6290643;22;20059;-94
2022/11/05 06:48:09;;;;;;;5.57;3.33;;;;;;;;;;6288854;22;20003;-94
2022/11/05 06:51:08;;;;;;;4.65;3.30;;;;;;;;;;6281586;22;20016;-94
2022/11/05 06:53:40;;;;;;;6.18;3.67;;;;;;;;;;6289440;22;20007;-95
2022/11/05 06:56:09;;;;;;;6.03;3.60;;;;;;;;;;6289712;22;20003;-94
2022/11/05 07:01:49;;;;;;;5.90;3.42;;;;;;;;;;6318447;22;20022;-92
2022/11/05 07:04:25;;;;;;;5.80;3.67;;;;;;;;;;6290891;22;20056;-93
2022/11/05 07:16:11;;;;;;;6.88;4.40;;;;;;;;;;6316133;22;20014;-93
2022/11/05 07:21:44;;;;;;;7.20;4.80;;;;;;;;;;6321381;22;20052;-92
2022/11/05 07:24:45;;;;;;;7.03;5.00;;;;;;;;;;6289468;22;20014;-92
2022/11/05 07:27:24;;;;;;;8.38;5.05;;;;;;;;;;6287482;22;20006;-92
2022/11/05 07:32:56;;;;;;;7.70;4.57;;;;;;;;;;6290595;22;20011;-93
2022/11/05 07:38:29;;;;;;;6.85;4.00;;;;;;;;;;6313133;22;20033;-93
2022/11/05 07:43:56;;;;;;;8.15;4.45;;;;;;;;;;6308000;22;20092;-95
2022/11/05 07:46:31;;;;;;;5.28;3.95;;;;;;;;;;6218009;22;20000;-92
2022/11/05 07:51:47;;;;;;;8.63;4.38;;;;;;;;;;6280785;22;20031;-93
2022/11/05 07:54:16;;;;;;;6.18;3.90;;;;;;;;;;6257167;22;20090;-92
2022/11/05 08:03:08;;;;;;;8.85;3.85;;;;;;;;;;6217062;23;20032;-93
2022/11/05 08:05:50;;;;;;;6.45;3.72;;;;;;;;;;6191237;23;20508;-91
2022/11/05 08:08:17;;;;;;;5.47;3.15;;;;;;;;;;6190505;23;20001;-94
2022/11/05 08:10:43;;;;;;;5.50;3.60;;;;;;;;;;6192486;23;20070;-94
2022/11/05 08:13:13;;;;;;;5.80;3.95;;;;;;;;;;6196966;23;20005;-96
2022/11/05 08:15:42;;;;;;;7.00;3.92;;;;;;;;;;6219943;23;20008;-93
2022/11/05 08:18:32;;;;;;;5.00;3.75;;;;;;;;;;6196998;23;20007;-93
2022/11/05 08:21:02;;;;;;;8.55;3.22;;;;;;;;;;6191831;23;20005;-94
2022/11/05 08:23:31;;;;;;;4.55;3.15;;;;;;;;;;6196897;23;19992;-91
2022/11/05 08:26:08;;;;;;;8.15;3.15;;;;;;;;;;6194416;23;20435;-93
2022/11/05 08:28:40;;;;;;;6.22;3.08;;;;;;;;;;6246049;22;20008;-91
2022/11/05 08:31:06;;;;;;;5.40;3.35;;;;;;;;;;6252958;22;20019;-90
2022/11/05 08:33:38;;;;;;;4.75;2.58;;;;;;;;;;6252303;22;20031;-92
2022/11/05 08:36:04;;;;;;;3.65;2.53;;;;;;;;;;6251728;22;20004;-91
2022/11/05 08:38:30;;;;;;;4.53;2.47;;;;;;;;;;6254162;22;20023;-90
2022/11/05 08:41:05;;;;;;;5.45;2.33;;;;;;;;;;6251482;22;20440;-91
2022/11/05 08:43:46;;;;;;;3.63;2.60;;;;;;;;;;6252537;22;20004;-92
2022/11/05 08:49:51;;;;;;;6.38;3.17;;;;;;;;;;6278444;22;20091;-95
2022/11/05 08:52:23;;;;;;;9.23;6.75;;;;;;;;;;6221730;23;20023;-91
2022/11/05 08:54:49;;;;;;;32.17;24.93;;;;;;;;;;6223452;23;20092;-95
2022/11/05 08:57:15;;;;;;;11.27;8.18;;;;;;;;;;6221791;23;20243;-89
2022/11/05 08:59:49;;;;;;;8.13;5.18;;;;;;;;;;6220627;23;20119;-92
2022/11/05 09:02:15;;;;;;;5.25;3.10;;;;;;;;;;6221749;23;20008;-92
2022/11/05 09:04:44;;;;;;;4.75;2.83;;;;;;;;;;6223014;23;20000;-94
2022/11/05 09:07:13;;;;;;;4.53;2.75;;;;;;;;;;6223176;23;20010;-94
2022/11/05 09:09:39;;;;;;;5.15;3.00;;;;;;;;;;6224207;23;20011;-94
2022/11/05 09:12:15;;;;;;;5.20;3.20;;;;;;;;;;6186026;23;20009;-95
2022/11/05 09:17:51;;;;;;;5.10;3.40;;;;;;;;;;6186660;23;20032;-93
2022/11/05 09:20:24;;;;;;;4.10;2.92;;;;;;;;;;6186600;23;20015;-92
2022/11/05 09:22:50;;;;;;;8.70;3.95;;;;;;;;;;6186361;23;20030;-93
2022/11/05 09:25:16;;;;;;;7.50;4.00;;;;;;;;;;6161433;23;20013;-92
2022/11/05 09:27:51;;;;;;;6.13;4.32;;;;;;;;;;6186027;23;20009;-91
2022/11/05 09:30:20;;;;;;;6.75;4.50;;;;;;;;;;6185739;23;20013;-91
2022/11/05 09:32:57;;;;;;;6.07;3.90;;;;;;;;;;6185612;23;20009;-92
2022/11/05 09:35:23;;;;;;;5.25;3.28;;;;;;;;;;6186451;23;20084;-93
2022/11/05 09:37:52;;;;;;;7.15;3.97;;;;;;;;;;6189431;23;20012;-94
2022/11/05 09:40:21;;;;;;;5.50;3.53;;;;;;;;;;6187274;23;20067;-92
2022/11/05 09:42:51;;;;;;;4.50;3.33;;;;;;;;;;6209825;23;20071;-92
2022/11/05 09:45:25;;;;;;;4.63;3.30;;;;;;;;;;6221902;23;20431;-93
2022/11/05 09:48:03;;;;;;;5.20;3.40;;;;;;;;;;6188232;23;20005;-93
2022/11/05 09:50:52;;;;;;;7.57;3.60;;;;;;;;;;6186210;23;20020;-93
2022/11/05 09:53:19;;;;;;;5.75;3.92;;;;;;;;;;6189567;23;20067;-93
2022/11/05 09:55:54;;;;;;;3.67;2.85;;;;;;;;;;6190806;23;20000;-92
2022/11/05 09:58:25;;;;;;;4.40;3.28;;;;;;;;;;6191850;23;20020;-93
2022/11/05 10:00:51;;;;;;;4.93;3.42;;;;;;;;;;6195251;23;20005;-94
2022/11/05 10:03:36;;;;;;;5.00;2.95;;;;;;;;;;6192055;23;20016;-96
2022/11/05 10:06:09;;;;;;;5.93;4.13;;;;;;;;;;6178811;23;20116;-93
2022/11/05 10:08:45;;;;;;;6.20;4.55;;;;;;;;;;6195062;23;19993;-94
2022/11/05 10:14:37;;;;;;;6.82;3.80;;;;;;;;;;6185773;23;20040;-94
2022/11/05 10:17:23;;;;;;;7.68;4.70;;;;;;;;;;6189605;23;20330;-95
2022/11/05 10:23:28;;;;;;;7.90;5.03;;;;;;;;;;6214684;23;20020;-96
2022/11/05 10:26:40;;;;;;;5.90;3.90;;;;;;;;;;6191161;23;20425;-95
2022/11/05 10:32:13;;;;;;;4.93;3.67;;;;;;;;;;6291030;22;20121;-96
2022/11/05 10:34:39;;;;;;;7.13;4.70;;;;;;;;;;6257600;22;19999;-93
2022/11/05 10:39:54;;;;;;;5.43;4.22;;;;;;;;;;6289790;22;20053;-94
2022/11/05 10:42:29;;;;;;;8.63;4.18;;;;;;;;;;6235202;22;20260;-95
2022/11/05 10:45:38;;;;;;;6.85;4.57;;;;;;;;;;6287223;22;20076;-94
2022/11/05 10:48:24;;;;;;;10.88;6.82;;;;;;;;;;6143826;23;20081;-94
2022/11/05 10:50:53;;;;;;;6.05;4.20;;;;;;;;;;6106725;23;20097;-90
2022/11/05 10:53:40;;;;;;;4.50;3.60;;;;;;;;;;6219431;22;20030;-91
2022/11/05 10:56:25;;;;;;;6.07;4.05;;;;;;;;;;6285139;22;20004;-92
2022/11/05 10:59:02;;;;;;;5.95;4.13;;;;;;;;;;6255577;22;20085;-93
2022/11/05 11:01:35;;;;;;;5.35;3.80;;;;;;;;;;6255019;22;20003;-92
2022/11/05 11:04:08;;;;;;;5.60;4.15;;;;;;;;;;6254442;22;20042;-96
2022/11/05 11:06:41;;;;;;;7.07;4.28;;;;;;;;;;6254354;22;20012;-96
2022/11/05 11:09:18;;;;;;;9.48;6.43;;;;;;;;;;6218108;23;20027;-89
2022/11/05 11:11:44;;;;;;;5.28;4.07;;;;;;;;;;6193174;23;20024;-92
2022/11/05 11:14:22;;;;;;;5.43;3.88;;;;;;;;;;6192168;23;20027;-92
2022/11/05 11:16:58;;;;;;;5.15;3.55;;;;;;;;;;6195124;23;20334;-94
2022/11/05 11:19:34;;;;;;;5.47;3.80;;;;;;;;;;6195878;23;20007;-93
2022/11/05 11:22:06;;;;;;;4.53;4.03;;;;;;;;;;6196932;23;20005;-91
2022/11/05 11:25:04;;;;;;;4.40;3.20;;;;;;;;;;6200797;23;20009;-93
2022/11/05 11:27:48;;;;;;;5.30;3.40;;;;;;;;;;6198747;23;20008;-92
2022/11/05 11:30:20;;;;;;;;;;;;;;;;;;6201869;23;20076;-93
2022/11/05 11:33:00;;;;;;;3.88;3.20;;;;;;;;;;6197103;23;19912;-91
2022/11/05 11:36:03;;;;;;;4.57;2.75;;;;;;;;;;6234146;23;20056;-91
2022/11/05 11:38:45;;;;;;;4.28;3.10;;;;;;;;;;6202229;23;19988;-92
2022/11/05 11:44:02;;;;;;;6.93;4.28;;;;;;;;;;6309625;22;20039;-96
2022/11/05 11:46:37;;;;;;;3.85;3.38;;;;;;;;;;6253771;22;20436;-95
2022/11/05 11:49:04;;;;;;;5.38;4.13;;;;;;;;;;6289010;22;20003;-92
2022/11/05 11:51:43;;;;;;;4.70;3.60;;;;;;;;;;6292093;22;20011;-92
2022/11/05 11:54:19;;;;;;;6.82;4.70;;;;;;;;;;6325965;22;20003;-96
2022/11/05 11:56:51;;;;;;;4.95;3.97;;;;;;;;;;6296192;22;20034;-91
2022/11/05 11:59:28;;;;;;;6.15;4.70;;;;;;;;;;6298731;22;20019;-89
2022/11/05 12:02:22;;;;;;;5.78;3.70;;;;;;;;;;6293422;22;19999;-93
2022/11/05 12:05:07;;;;;;;6.63;3.35;;;;;;;;;;6312189;22;20008;-94
2022/11/05 12:07:59;;;;;;;3.28;2.28;;;;;;;;;;6289178;22;20435;-95
2022/11/05 12:10:27;;;;;;;3.97;2.95;;;;;;;;;;6133870;23;20072;-94
2022/11/05 12:13:22;;;;;;;4.63;2.63;;;;;;;;;;6274015;22;20049;-92
2022/11/05 12:16:07;;;;;;;3.70;2.45;;;;;;;;;;6288209;22;20003;-93
2022/11/05 12:18:33;;;;;;;6.97;2.42;;;;;;;;;;6288803;22;20003;-93
2022/11/05 12:21:22;;;;;;;3.25;2.15;;;;;;;;;;6285991;22;20327;-93
2022/11/05 12:24:13;;;;;;;4.60;3.00;;;;;;;;;;6289369;22;20007;-91
2022/11/05 12:27:04;;;;;;;5.63;3.10;;;;;;;;;;6288800;22;20003;-90
2022/11/05 12:30:01;;;;;;;5.22;2.85;;;;;;;;;;6282973;22;20077;-89
2022/11/05 12:32:43;;;;;;;5.32;2.72;;;;;;;;;;6289232;22;20023;-92
2022/11/05 12:35:30;;;;;;;3.97;2.50;;;;;;;;;;6286719;22;20007;-90
2022/11/05 12:38:15;;;;;;;3.83;2.78;;;;;;;;;;6286805;22;20003;-91
2022/11/05 12:40:49;;;;;;;3.55;2.88;;;;;;;;;;6283987;22;20010;-90
2022/11/05 12:43:38;;;;;;;4.13;3.33;;;;;;;;;;6291675;22;20074;-89
2022/11/05 12:46:23;;;;;;;4.50;3.42;;;;;;;;;;6287938;22;20043;-90
2022/11/05 12:48:58;;;;;;;3.90;2.95;;;;;;;;;;6286543;22;20000;-92
2022/11/05 12:51:39;;;;;;;3.90;2.95;;;;;;;;;;6289721;22;20011;-87
2022/11/05 12:54:12;;;;;;;5.13;2.60;;;;;;;;;;6286932;22;20000;-93
2022/11/05 12:56:59;;;;;;;6.57;4.90;;;;;;;;;;6287451;22;20075;-94
2022/11/05 12:59:57;;;;;;;4.22;3.33;;;;;;;;;;6286347;22;20094;-93
2022/11/05 13:02:35;;;;;;;6.10;4.15;;;;;;;;;;6156140;22;20038;-94
2022/11/05 13:05:05;;;;;;;5.18;3.60;;;;;;;;;;6288871;22;20003;-94
2022/11/05 13:07:37;;;;;;;4.30;3.53;;;;;;;;;;6289736;22;20007;-94
2022/11/05 13:10:16;;;;;;;3.88;2.97;;;;;;;;;;6292244;22;20031;-95
2022/11/05 13:12:43;;;;;;;5.45;2.83;;;;;;;;;;6298455;22;20100;-94
2022/11/05 13:15:31;;;;;;;5.45;3.10;;;;;;;;;;6287432;22;20011;-92
2022/11/05 13:18:37;;;;;;;5.15;3.20;;;;;;;;;;6293174;22;20332;-92
2022/11/05 13:24:23;;;;;;;4.18;3.08;;;;;;;;;;6104582;23;20493;-91
2022/11/05 13:26:58;;;;;;;6.93;4.53;;;;;;;;;;6261159;22;20092;-95
2022/11/05 13:29:43;;;;;;;5.57;4.13;;;;;;;;;;6283596;22;20340;-92
2022/11/05 13:32:30;;;;;;;4.78;3.53;;;;;;;;;;6250395;23;20008;-91
2022/11/05 13:35:09;;;;;;;7.53;3.97;;;;;;;;;;6225327;23;20043;-93
2022/11/05 13:40:49;;;;;;;6.43;4.10;;;;;;;;;;6246258;23;20016;-96
2022/11/05 13:43:41;;;;;;;11.05;7.45;;;;;;;;;;6219747;23;20098;-94
2022/11/05 13:46:13;;;;;;;10.50;7.13;;;;;;;;;;6154827;23;20150;-95
2022/11/05 13:48:42;;;;;;;5.18;3.97;;;;;;;;;;6216342;23;20009;-95
2022/11/05 13:51:08;;;;;;;8.32;5.82;;;;;;;;;;6248263;23;20061;-91
2022/11/05 13:56:31;;;;;;;5.45;3.80;;;;;;;;;;6248280;23;20387;-90
2022/11/05 13:59:03;;;;;;;9.57;5.88;;;;;;;;;;6220510;23;20008;-92
2022/11/05 14:01:35;;;;;;;4.03;2.83;;;;;;;;;;6221438;23;20007;-94
2022/11/05 14:04:28;;;;;;;6.00;4.07;;;;;;;;;;6274636;22;20436;-91
2022/11/05 14:10:17;;;;;;;12.75;7.00;;;;;;;;;;6313555;22;20375;-96
2022/11/05 14:12:46;;;;;;;4.95;3.22;;;;;;;;;;6282675;22;20003;-92
2022/11/05 14:15:17;;;;;;;6.57;4.20;;;;;;;;;;6285495;22;20037;-92
2022/11/05 14:17:53;;;;;;;5.80;3.58;;;;;;;;;;6284899;22;20444;-92
2022/11/05 14:20:46;;;;;;;9.65;6.72;;;;;;;;;;6286717;22;20003;-94
2022/11/05 14:23:24;;;;;;;7.88;5.70;;;;;;;;;;6268537;22;20095;-93
2022/11/05 14:25:50;;;;;;;7.00;4.60;;;;;;;;;;6285329;22;20007;-92
2022/11/05 14:28:35;;;;;;;5.35;3.15;;;;;;;;;;6286288;22;20004;-93
2022/11/05 14:31:27;;;;;;;4.20;2.90;;;;;;;;;;6284811;22;20015;-93
2022/11/05 14:40:19;;;;;;;3.88;2.67;;;;;;;;;;6317401;22;20005;-92
2022/11/05 14:42:49;;;;;;;4.22;3.03;;;;;;;;;;6288667;22;20003;-93
2022/11/05 14:45:27;;;;;;;5.90;4.25;;;;;;;;;;6289810;22;20101;-94
2022/11/05 14:47:58;;;;;;;10.77;5.72;;;;;;;;;;6267864;22;20024;-92
2022/11/05 14:50:33;;;;;;;5.00;3.53;;;;;;;;;;6260612;22;20011;-92
2022/11/05 14:53:09;;;;;;;7.35;5.22;;;;;;;;;;6259885;22;20000;-96
2022/11/05 14:55:50;;;;;;;3.40;2.35;;;;;;;;;;6256985;22;20008;-95
2022/11/05 14:58:33;;;;;;;8.07;5.13;;;;;;;;;;6257333;22;20429;-92
2022/11/05 15:04:26;;;;;;;7.45;4.18;;;;;;;;;;6244711;22;20118;-96
2022/11/05 15:07:01;;;;;;;4.22;3.15;;;;;;;;;;6256639;22;20013;-92
2022/11/05 15:09:40;;;;;;;5.85;3.03;;;;;;;;;;6255597;22;20037;-93
2022/11/05 15:12:09;;;;;;;6.10;3.45;;;;;;;;;;6256601;22;20448;-93
2022/11/05 15:17:44;;;;;;;4.80;3.00;;;;;;;;;;6285073;22;20010;-93
2022/11/05 15:20:17;;;;;;;3.75;2.40;;;;;;;;;;6258152;22;20495;-92
2022/11/05 15:22:55;;;;;;;3.25;2.58;;;;;;;;;;6257573;22;20003;-96
2022/11/05 15:25:25;;;;;;;6.00;3.83;;;;;;;;;;6256069;22;20004;-95
2022/11/05 15:27:59;;;;;;;6.32;4.25;;;;;;;;;;6255243;22;19999;-92
2022/11/05 15:30:25;;;;;;;5.45;3.67;;;;;;;;;;6257279;22;20375;-92
2022/11/05 15:32:51;;;;;;;6.30;4.28;;;;;;;;;;6257093;22;20023;-93
2022/11/05 15:35:55;;;;;;;7.25;4.10;;;;;;;;;;6255864;22;20012;-92
2022/11/05 15:38:25;;;;;;;6.32;3.92;;;;;;;;;;6253721;22;20010;-91
2022/11/05 15:40:59;;;;;;;4.57;2.97;;;;;;;;;;6252906;22;20369;-92
2022/11/05 15:43:25;;;;;;;6.47;2.88;;;;;;;;;;6252826;22;20008;-95
2022/11/05 15:46:03;;;;;;;4.57;2.88;;;;;;;;;;6257548;22;20380;-92
2022/11/05 15:48:29;;;;;;;4.45;3.35;;;;;;;;;;6288329;22;20003;-91
2022/11/05 15:50:56;;;;;;;4.85;3.50;;;;;;;;;;6288165;22;20045;-91
2022/11/05 15:53:34;;;;;;;5.22;3.83;;;;;;;;;;6284724;22;20060;-91
2022/11/05 15:56:21;;;;;;;7.03;5.13;;;;;;;;;;6283121;22;20090;-92
2022/11/05 15:58:48;;;;;;;7.35;4.75;;;;;;;;;;6283993;22;20176;-91
2022/11/05 16:01:40;;;;;;;6.80;4.32;;;;;;;;;;6284629;22;20432;-91
2022/11/05 16:04:14;;;;;;;6.70;4.95;;;;;;;;;;6325961;22;20420;-92
2022/11/05 16:13:03;;;;;;;4.10;2.90;;;;;;;;;;6227395;23;20074;-93
2022/11/05 16:15:39;;;;;;;4.20;2.60;;;;;;;;;;6205989;23;20005;-94
2022/11/05 16:21:42;;;;;;;3.05;1.52;;;;;;;;;;6227681;23;20016;-95
2022/11/05 16:24:36;;;;;;;3.58;2.17;;;;;;;;;;6200250;23;20015;-95
2022/11/05 16:36:16;;;;;;;3.78;2.22;;;;;;;;;;6227889;23;20007;-93
2022/11/05 16:38:48;;;;;;;4.68;1.95;;;;;;;;;;6199282;23;20008;-92
2022/11/05 16:41:22;;;;;;;3.28;1.70;;;;;;;;;;6193765;23;20139;-93
2022/11/05 16:56:15;;;;;;;8.43;4.63;;;;;;;;;;6292367;22;20031;-96
2022/11/05 17:13:58;;;;;;;24.65;17.33;;;;;;;;;;6317390;22;20034;-95
2022/11/05 17:16:27;;;;;;;14.13;11.98;;;;;;;;;;6273164;22;20007;-93
2022/11/05 17:18:53;;;;;;;3.47;3.15;;;;;;;;;;6283194;22;20003;-95
2022/11/05 17:21:31;;;;;;;6.13;2.60;;;;;;;;;;6286714;22;20003;-96
2022/11/05 17:27:02;;;;;;;4.47;2.78;;;;;;;;;;6263270;22;20030;-94
2022/11/05 17:29:51;;;;;;;6.22;3.92;;;;;;;;;;6285391;22;20038;-96
2022/11/05 17:35:08;;;;;;;7.25;3.00;;;;;;;;;;6323044;22;20067;-96
2022/11/05 17:37:38;;;;;;;6.45;2.00;;;;;;;;;;6313164;22;20007;-95
2022/11/05 17:40:08;;;;;;;5.95;2.40;;;;;;;;;;6292059;22;19999;-95
2022/11/05 17:42:59;;;;;;;6.30;2.50;;;;;;;;;;6298163;22;20037;-96
2022/11/05 17:45:57;;;;;;;6.63;3.60;;;;;;;;;;6291635;22;20011;-96
2022/11/05 17:48:39;;;;;;;7.95;4.22;;;;;;;;;;6167463;22;20045;-96
2022/11/05 17:51:14;;;;;;;7.97;4.43;;;;;;;;;;6300553;22;20015;-95
2022/11/05 17:53:43;;;;;;;11.75;5.72;;;;;;;;;;6325846;22;20003;-96
2022/11/05 17:56:13;;;;;;;10.27;5.43;;;;;;;;;;6291734;22;19987;-96
2022/11/05 17:58:40;;;;;;;9.75;5.70;;;;;;;;;;6273088;22;20106;-96
2022/11/05 18:01:23;;;;;;;17.05;7.13;;;;;;;;;;6289567;22;20003;-96
2022/11/05 18:03:58;;;;;;;13.23;7.05;;;;;;;;;;6289503;22;20007;-96
2022/11/05 18:06:56;;;;;;;9.07;5.53;;;;;;;;;;6290779;22;20028;-96
2022/11/05 18:10:18;;;;;;;10.98;5.78;;;;;;;;;;6316981;22;20008;-96
2022/11/05 18:24:53;;;;;;;7.22;3.30;;;;;;;;;;6079076;23;20011;-96
2022/11/05 18:58:22;;;;;;;12.45;5.30;;;;;;;;;;6270285;22;20039;-96
2022/11/05 19:04:14;;;;;;;10.88;4.53;;;;;;;;;;6247530;22;20034;-93
2022/11/05 19:06:40;;;;;;;10.73;4.95;;;;;;;;;;6287533;22;19999;-96
2022/11/05 19:09:08;;;;;;;11.00;5.70;;;;;;;;;;6285390;22;20436;-91
2022/11/05 19:11:35;;;;;;;10.23;4.72;;;;;;;;;;6283433;22;20015;-96
2022/11/05 19:14:18;;;;;;;8.43;4.30;;;;;;;;;;6275735;22;20441;-95
2022/11/05 19:16:47;;;;;;;7.55;3.97;;;;;;;;;;6284827;22;20007;-95
2022/11/05 19:19:13;;;;;;;12.50;5.70;;;;;;;;;;6285473;22;20029;-92
2022/11/05 19:21:45;;;;;;;8.20;4.15;;;;;;;;;;6286077;22;20003;-95
2022/11/05 19:24:15;;;;;;;6.82;3.95;;;;;;;;;;6284857;22;20060;-95
2022/11/05 19:26:41;;;;;;;9.93;5.55;;;;;;;;;;6287278;22;20014;-94
2022/11/05 19:29:10;;;;;;;10.85;6.00;;;;;;;;;;6284546;22;20078;-94
2022/11/05 19:34:42;;;;;;;15.88;7.43;;;;;;;;;;6336774;22;20025;-92
2022/11/05 19:45:07;;;;;;;12.98;5.20;;;;;;;;;;6311683;22;20038;-95
2022/11/05 19:47:33;;;;;;;14.90;5.95;;;;;;;;;;6288339;22;20018;-95
2022/11/05 19:52:53;;;;;;;11.75;5.80;;;;;;;;;;6299895;22;20030;-96
2022/11/05 20:01:23;;;;;;;11.57;5.60;;;;;;;;;;6275074;22;20031;-96
2022/11/05 20:03:51;;;;;;;6.65;4.32;;;;;;;;;;6254353;22;20004;-95
2022/11/05 20:06:24;;;;;;;10.23;6.35;;;;;;;;;;6254422;22;20062;-96
2022/11/05 20:08:55;;;;;;;10.48;5.60;;;;;;;;;;6257354;22;20095;-96
2022/11/05 20:11:31;;;;;;;9.43;5.07;;;;;;;;;;6288519;22;20083;-96
2022/11/05 20:13:57;;;;;;;11.25;4.93;;;;;;;;;;6255809;22;20007;-95
2022/11/05 20:16:25;;;;;;;9.60;5.10;;;;;;;;;;6257049;22;20337;-94
2022/11/05 20:21:50;;;;;;;10.63;5.18;;;;;;;;;;6267492;22;20038;-94
2022/11/05 20:24:18;;;;;;;12.73;5.95;;;;;;;;;;6254537;22;20004;-95
2022/11/05 20:26:44;;;;;;;8.65;4.68;;;;;;;;;;6255301;22;20010;-95
2022/11/05 20:29:11;;;;;;;12.10;5.38;;;;;;;;;;6254807;22;20015;-95
2022/11/05 20:32:03;;;;;;;10.82;5.40;;;;;;;;;;6255205;22;20019;-95
2022/11/05 20:34:39;;;;;;;9.10;5.45;;;;;;;;;;6228074;22;20002;-96
2022/11/05 20:37:36;;;;;;;9.57;4.60;;;;;;;;;;6254916;22;20062;-95
2022/11/05 20:40:10;;;;;;;10.57;5.50;;;;;;;;;;6254571;22;20082;-90
2022/11/05 20:48:24;;;;;;;7.85;4.80;;;;;;;;;;6283204;22;20449;-95
2022/11/05 20:50:57;;;;;;;13.70;6.68;;;;;;;;;;6251949;22;20035;-95
2022/11/05 20:53:23;;;;;;;10.50;5.22;;;;;;;;;;6252992;22;20000;-92
2022/11/05 20:55:58;;;;;;;10.65;5.90;;;;;;;;;;6253621;22;20008;-95
2022/11/05 21:01:32;;;;;;;10.77;6.28;;;;;;;;;;6297396;22;20005;-96
2022/11/05 21:04:23;;;;;;;10.27;5.80;;;;;;;;;;6283508;22;20067;-96
2022/11/05 21:06:49;;;;;;;14.50;6.55;;;;;;;;;;6289526;22;19999;-92
2022/11/05 21:09:15;;;;;;;13.07;6.25;;;;;;;;;;6292024;22;20420;-93
2022/11/05 21:18:29;;;;;;;10.27;5.43;;;;;;;;;;6311831;22;20060;-96
2022/11/05 21:21:27;;;;;;;12.60;8.07;;;;;;;;;;6282821;22;20003;-96
2022/11/05 21:24:27;;;;;;;14.57;6.93;;;;;;;;;;6139455;23;20084;-96
2022/11/05 21:26:53;;;;;;;12.32;6.15;;;;;;;;;;6141620;22;20029;-93
2022/11/05 21:29:22;;;;;;;8.93;3.85;;;;;;;;;;6288797;22;20014;-96
2022/11/05 21:31:48;;;;;;;6.95;3.38;;;;;;;;;;6294510;22;20015;-92
2022/11/05 21:34:15;;;;;;;7.65;3.00;;;;;;;;;;6285649;22;20003;-93
2022/11/05 21:36:42;;;;;;;8.48;3.28;;;;;;;;;;6285935;22;20007;-94
2022/11/05 21:42:16;;;;;;;10.23;3.38;;;;;;;;;;6316989;22;20041;-96
2022/11/05 21:44:48;;;;;;;10.73;3.22;;;;;;;;;;6292031;22;20000;-94
2022/11/05 21:47:24;;;;;;;7.07;3.28;;;;;;;;;;6288943;22;20007;-96
2022/11/05 21:49:52;;;;;;;8.68;3.50;;;;;;;;;;6262548;22;20007;-94
2022/11/05 22:00:36;;;;;;;11.85;4.30;;;;;;;;;;6316390;22;20002;-93
2022/11/05 22:03:03;;;;;;;11.05;3.50;;;;;;;;;;6290344;22;19984;-94
2022/11/05 22:05:34;;;;;;;9.65;3.40;;;;;;;;;;6319024;22;20033;-94
2022/11/05 22:08:02;;;;;;;8.82;3.38;;;;;;;;;;6290196;22;20025;-93
2022/11/05 22:10:36;;;;;;;9.95;3.38;;;;;;;;;;6319733;22;20073;-95
2022/11/05 22:13:02;;;;;;;8.57;3.38;;;;;;;;;;6289397;22;20034;-94
2022/11/05 22:24:56;;;;;;;17.95;6.45;;;;;;;;;;6322094;22;20006;-95
2022/11/05 22:27:52;;;;;;;14.55;5.97;;;;;;;;;;6295419;22;20027;-94
2022/11/05 22:30:46;;;;;;;8.88;4.00;;;;;;;;;;6294937;22;20011;-95
2022/11/05 22:33:12;;;;;;;;;;;;;;;;;;6296054;22;20014;-96
2022/11/05 22:35:44;;;;;;;20.60;5.10;;;;;;;;;;6294767;22;19895;-96
2022/11/05 22:38:29;;;;;;;12.70;5.55;;;;;;;;;;6295321;22;20488;-96
2022/11/05 22:47:06;;;;;;;12.35;4.40;;;;;;;;;;6321140;22;20098;-96
2022/11/05 22:52:41;;;;;;;9.02;4.22;;;;;;;;;;6290270;22;20063;-95
2022/11/05 23:03:46;;;;;;;6.95;3.15;;;;;;;;;;6294545;22;20003;-96
2022/11/05 23:12:32;;;;;;;;;;;;;;;;;;6269583;22;20016;-96
2022/11/05 23:15:00;;;;;;;10.20;3.47;;;;;;;;;;6291522;22;19907;-96
2022/11/05 23:29:10;;;;;;;7.82;3.20;;;;;;;;;;6322913;22;20006;-96
2022/11/05 23:34:46;;;;;;;9.90;3.83;;;;;;;;;;6318246;22;20026;-96
2022/11/05 23:48:58;;;;;;;9.00;3.90;;;;;;;;;;6310399;22;20030;-95
2022/11/05 23:51:25;;;;;;;8.40;3.40;;;;;;;;;;6297518;22;20019;-95
2022/11/05 23:56:42;;;;;;;13.77;4.82;;;;;;;;;;6324242;22;20017;-95
2022/11/05 23:59:14;;;;;;;11.68;3.90;;;;;;;;;;6299407;22;20003;-95
